Time;durP1;ratioP1;P1;durP2;ratioP2;P2;SDS_P1;SDS_P2;PMS_P1;PMS_P2;Temp;Humidity;BMP_temperature;BMP_pressure;BME280_temperature;BME280_humidity;BME280_pressure;Samples;Min_cycle;Max_cycle;Signal;HPM_P1;HPM_P2
2021/04/04 00:00:14;;;;;;;34.30;18.08;;;18.80;56.20;;;;;;5099684;28;20020;-60
2021/04/04 00:02:40;;;;;;;33.60;19.48;;;18.80;56.40;;;;;;5098010;28;20032;-59
2021/04/04 00:05:08;;;;;;;32.45;19.35;;;18.70;56.40;;;;;;5100407;28;20547;-59
2021/04/04 00:07:34;;;;;;;31.90;17.45;;;18.70;56.60;;;;;;5100154;28;20083;-59
2021/04/04 00:10:00;;;;;;;26.52;17.15;;;18.70;56.60;;;;;;5099993;28;20472;-59
2021/04/04 00:12:25;;;;;;;30.65;18.73;;;18.70;56.70;;;;;;5100186;28;20115;-59
2021/04/04 00:14:51;;;;;;;31.98;17.50;;;18.70;57.50;;;;;;5100232;28;20111;-59
2021/04/04 00:17:17;;;;;;;29.33;17.48;;;18.60;57.30;;;;;;5099953;28;20024;-59
2021/04/04 00:19:43;;;;;;;30.70;17.70;;;18.70;57.40;;;;;;5100149;28;20061;-59
2021/04/04 00:22:10;;;;;;;32.47;16.58;;;18.70;58.00;;;;;;5100227;28;20028;-59
2021/04/04 00:24:36;;;;;;;27.08;16.48;;;18.60;57.80;;;;;;5099834;28;20112;-59
2021/04/04 00:27:01;;;;;;;25.80;16.45;;;18.60;57.80;;;;;;5099943;28;20031;-60
2021/04/04 00:29:27;;;;;;;22.27;13.93;;;18.60;57.90;;;;;;5100294;28;20028;-59
2021/04/04 00:31:53;;;;;;;30.23;17.05;;;18.60;57.80;;;;;;5100017;28;20099;-59
2021/04/04 00:34:19;;;;;;;25.00;16.05;;;18.60;57.80;;;;;;5099868;28;20024;-59
2021/04/04 00:36:44;;;;;;;22.45;14.45;;;18.60;56.90;;;;;;5099636;28;20380;-62
2021/04/04 00:39:12;;;;;;;25.55;14.93;;;18.60;56.60;;;;;;5099782;28;20028;-58
2021/04/04 00:41:38;;;;;;;25.88;14.48;;;18.70;56.40;;;;;;5099817;28;20020;-58
2021/04/04 00:44:04;;;;;;;26.15;15.60;;;18.80;56.20;;;;;;5099981;28;20036;-60
2021/04/04 00:46:30;;;;;;;20.27;13.77;;;18.80;56.40;;;;;;5097152;28;20035;-58
2021/04/04 00:48:56;;;;;;;27.58;15.82;;;18.80;56.40;;;;;;5096748;28;20028;-58
2021/04/04 00:51:22;;;;;;;22.90;13.98;;;18.90;56.20;;;;;;5096643;28;20025;-59
2021/04/04 00:53:48;;;;;;;22.90;12.93;;;18.80;56.50;;;;;;5096833;28;20490;-59
2021/04/04 00:56:14;;;;;;;23.27;13.30;;;18.80;56.80;;;;;;5096442;28;20032;-59
2021/04/04 00:58:40;;;;;;;21.15;12.50;;;18.80;57.70;;;;;;5096363;28;20024;-60
2021/04/04 01:01:06;;;;;;;24.55;13.73;;;18.70;57.00;;;;;;5096263;28;20418;-59
2021/04/04 01:03:32;;;;;;;20.90;13.02;;;18.70;56.90;;;;;;5096507;28;20059;-59
2021/04/04 01:06:06;;;;;;;21.30;13.52;;;18.70;57.00;;;;;;5096132;28;20051;-59
2021/04/04 01:08:32;;;;;;;21.98;12.90;;;18.60;57.30;;;;;;5096832;28;20032;-59
2021/04/04 01:10:59;;;;;;;19.58;12.57;;;18.60;57.30;;;;;;5096257;28;20426;-61
2021/04/04 01:14:01;;;;;;;26.08;14.15;;;18.60;57.10;;;;;;5096387;28;20031;-60
2021/04/04 01:16:33;;;;;;;20.83;12.10;;;18.60;57.70;;;;;;5096286;28;20024;-61
2021/04/04 01:19:09;;;;;;;18.58;10.95;;;18.60;57.60;;;;;;5096193;28;20464;-59
2021/04/04 01:22:00;;;;;;;20.50;12.90;;;18.60;57.60;;;;;;5095956;28;20059;-59
2021/04/04 01:24:32;;;;;;;;;;;18.60;57.70;;;;;;5096505;28;20426;-60
2021/04/04 01:27:26;;;;;;;21.63;11.30;;;18.60;58.30;;;;;;5094907;28;19911;-61
2021/04/04 01:29:54;;;;;;;19.35;11.32;;;18.60;58.30;;;;;;5096427;28;20146;-61
2021/04/04 01:32:20;;;;;;;21.90;11.70;;;18.60;58.20;;;;;;5094889;28;20422;-61
2021/04/04 01:34:47;;;;;;;19.92;11.57;;;18.60;57.40;;;;;;5095709;28;20036;-60
2021/04/04 01:37:14;;;;;;;18.50;10.68;;;18.60;57.40;;;;;;5095696;28;20028;-60
2021/04/04 01:39:45;;;;;;;19.88;11.50;;;18.70;57.00;;;;;;5095710;28;20479;-60
2021/04/04 01:42:13;;;;;;;18.10;10.68;;;18.70;56.60;;;;;;5095647;28;20038;-61
2021/04/04 01:44:43;;;;;;;19.85;10.05;;;18.70;56.70;;;;;;5095503;28;20086;-61
2021/04/04 01:47:09;;;;;;;20.48;10.90;;;18.80;56.70;;;;;;5095276;28;20050;-61
2021/04/04 01:49:37;;;;;;;14.68;9.82;;;18.80;56.80;;;;;;5095479;28;20036;-61
2021/04/04 01:52:04;;;;;;;15.98;9.48;;;18.70;56.80;;;;;;5095230;28;20028;-61
2021/04/04 01:54:33;;;;;;;16.50;9.50;;;18.70;57.20;;;;;;5095513;28;20062;-61
2021/04/04 01:56:59;;;;;;;15.00;9.60;;;18.70;57.30;;;;;;5095780;28;20024;-61
2021/04/04 01:59:27;;;;;;;16.77;10.15;;;18.60;57.20;;;;;;5094011;28;20640;-61
2021/04/04 02:01:53;;;;;;;17.70;10.27;;;18.60;57.50;;;;;;5095408;28;20032;-61
2021/04/04 02:04:19;;;;;;;16.70;9.93;;;18.60;57.60;;;;;;5095213;28;20073;-61
2021/04/04 02:06:45;;;;;;;18.35;11.00;;;18.60;57.40;;;;;;5095650;28;20426;-61
2021/04/04 02:09:14;;;;;;;13.77;8.20;;;18.60;57.40;;;;;;5095204;28;20058;-61
2021/04/04 02:11:41;;;;;;;17.23;8.50;;;18.60;57.50;;;;;;5095070;28;20059;-61
2021/04/04 02:14:10;;;;;;;14.43;8.25;;;18.60;57.90;;;;;;5094993;28;20036;-61
2021/04/04 02:16:37;;;;;;;15.35;9.10;;;18.60;58.00;;;;;;5094701;28;20082;-61
2021/04/04 02:19:08;;;;;;;18.00;8.40;;;18.50;57.90;;;;;;5095504;28;20031;-61
2021/04/04 02:21:34;;;;;;;15.90;9.15;;;18.50;58.20;;;;;;5095175;28;20020;-61
2021/04/04 02:24:05;;;;;;;14.35;9.02;;;18.50;58.30;;;;;;5094627;28;20040;-60
2021/04/04 02:26:32;;;;;;;15.82;9.02;;;18.50;58.50;;;;;;5094672;28;20089;-61
2021/04/04 02:28:58;;;;;;;16.77;9.02;;;18.50;58.60;;;;;;5094594;28;20105;-61
2021/04/04 02:31:26;;;;;;;15.05;8.32;;;18.50;58.60;;;;;;5094432;28;20392;-61
2021/04/04 02:34:01;;;;;;;13.90;8.00;;;18.50;57.70;;;;;;5094617;28;20032;-61
2021/04/04 02:36:28;;;;;;;13.88;8.05;;;18.60;57.50;;;;;;5094646;28;20055;-58
2021/04/04 02:39:25;;;;;;;15.70;8.77;;;18.60;57.10;;;;;;5094482;28;20024;-58
2021/04/04 02:41:52;;;;;;;14.63;7.93;;;18.70;57.00;;;;;;5093448;28;20070;-61
2021/04/04 02:44:18;;;;;;;13.02;8.25;;;18.70;57.00;;;;;;5094923;28;20036;-61
2021/04/04 02:46:54;;;;;;;14.63;9.13;;;18.70;57.00;;;;;;5094577;28;20051;-61
2021/04/04 02:49:21;;;;;;;13.52;8.00;;;18.70;57.20;;;;;;5094534;28;20115;-61
2021/04/04 02:51:51;;;;;;;14.23;8.15;;;18.70;57.30;;;;;;5094396;28;20028;-61
2021/04/04 02:54:21;;;;;;;11.00;7.13;;;18.70;57.80;;;;;;5094217;28;20032;-61
2021/04/04 02:56:49;;;;;;;11.65;7.60;;;18.60;57.90;;;;;;5094174;28;20043;-61
2021/04/04 02:59:20;;;;;;;13.70;8.48;;;18.60;58.00;;;;;;5094120;28;20032;-61
2021/04/04 03:01:47;;;;;;;9.85;7.00;;;18.60;58.10;;;;;;5094483;28;20024;-61
2021/04/04 03:04:15;;;;;;;10.50;6.90;;;18.60;58.30;;;;;;5094185;28;20035;-61
2021/04/04 03:06:44;;;;;;;13.50;8.40;;;18.50;58.40;;;;;;5094163;28;20058;-61
2021/04/04 03:09:11;;;;;;;13.85;7.30;;;18.50;58.60;;;;;;5093737;28;20077;-61
2021/04/04 03:11:38;;;;;;;11.32;6.57;;;18.50;58.60;;;;;;5093925;28;20028;-61
2021/04/04 03:14:05;;;;;;;11.50;7.07;;;18.50;58.60;;;;;;5094016;28;20028;-61
2021/04/04 03:16:32;;;;;;;11.52;7.40;;;18.50;58.90;;;;;;5094069;28;20028;-60
2021/04/04 03:18:59;;;;;;;11.02;6.25;;;18.40;58.80;;;;;;5094049;28;20051;-60
2021/04/04 03:21:27;;;;;;;11.05;7.22;;;18.40;58.90;;;;;;5094031;28;20027;-61
2021/04/04 03:23:53;;;;;;;9.50;6.28;;;18.40;59.00;;;;;;5094086;28;20038;-61
2021/04/04 03:26:21;;;;;;;10.45;6.32;;;18.40;59.10;;;;;;5094078;28;20046;-60
2021/04/04 03:28:47;;;;;;;12.27;6.95;;;18.50;59.20;;;;;;5093671;28;20048;-61
2021/04/04 03:31:16;;;;;;;11.07;6.75;;;18.50;59.30;;;;;;5093898;28;20066;-60
2021/04/04 03:33:42;;;;;;;10.18;6.45;;;18.50;58.10;;;;;;5093712;28;20150;-61
2021/04/04 03:36:20;;;;;;;12.48;6.88;;;18.60;58.00;;;;;;5093767;28;20028;-60
2021/04/04 03:38:48;;;;;;;12.20;6.53;;;18.60;57.70;;;;;;5093830;28;20114;-58
2021/04/04 03:41:14;;;;;;;11.45;6.03;;;18.70;57.60;;;;;;5093584;28;20047;-58
2021/04/04 03:43:41;;;;;;;9.68;7.10;;;18.70;57.50;;;;;;5093865;28;20380;-58
2021/04/04 03:46:11;;;;;;;11.00;6.00;;;18.70;57.50;;;;;;5093562;28;20028;-58
2021/04/04 03:48:39;;;;;;;11.57;6.50;;;18.70;57.70;;;;;;5093630;28;20430;-58
2021/04/04 03:51:07;;;;;;;12.20;6.68;;;18.60;57.90;;;;;;5093690;28;20024;-58
2021/04/04 03:53:36;;;;;;;11.70;5.80;;;18.60;58.30;;;;;;5093850;28;20032;-58
2021/04/04 03:56:04;;;;;;;9.63;6.03;;;18.50;58.40;;;;;;5093589;28;20028;-58
2021/04/04 03:58:33;;;;;;;12.98;7.10;;;18.50;58.60;;;;;;5093498;28;20111;-58
2021/04/04 04:01:02;;;;;;;12.10;6.60;;;18.50;58.70;;;;;;5093551;28;20071;-58
2021/04/04 04:03:28;;;;;;;9.77;6.10;;;18.50;58.90;;;;;;5093375;28;20081;-59
2021/04/04 04:05:55;;;;;;;10.10;6.30;;;18.50;58.80;;;;;;5093486;28;20533;-61
2021/04/04 04:08:21;;;;;;;10.48;5.75;;;18.50;58.90;;;;;;5093629;28;20380;-61
2021/04/04 04:10:48;;;;;;;10.65;6.72;;;18.50;58.90;;;;;;5093399;28;20024;-61
2021/04/04 04:13:14;;;;;;;9.13;5.90;;;18.40;59.50;;;;;;5093336;28;20055;-61
2021/04/04 04:15:40;;;;;;;9.95;5.88;;;18.40;59.10;;;;;;5093705;28;20456;-60
2021/04/04 04:18:06;;;;;;;12.25;5.97;;;18.40;59.10;;;;;;5093262;28;20078;-60
2021/04/04 04:20:33;;;;;;;9.68;5.32;;;18.40;59.30;;;;;;5093264;28;20024;-60
2021/04/04 04:23:01;;;;;;;7.68;5.68;;;18.40;59.30;;;;;;5096830;28;20032;-60
2021/04/04 04:25:28;;;;;;;8.80;5.32;;;18.40;59.70;;;;;;5097127;28;20039;-60
2021/04/04 04:27:54;;;;;;;9.43;5.38;;;18.40;59.60;;;;;;5096723;28;20048;-61
2021/04/04 04:30:20;;;;;;;7.75;5.43;;;18.40;59.60;;;;;;5097136;28;20028;-60
2021/04/04 04:32:51;;;;;;;9.20;5.20;;;18.40;58.40;;;;;;5096957;28;20032;-60
2021/04/04 04:35:17;;;;;;;;;;;18.50;58.30;;;;;;5097331;28;20035;-60
2021/04/04 04:37:43;;;;;;;9.98;4.28;;;18.50;58.00;;;;;;5097108;28;19904;-58
2021/04/04 04:40:10;;;;;;;8.52;4.97;;;18.60;57.90;;;;;;5096943;28;20028;-58
2021/04/04 04:42:41;;;;;;;9.10;5.88;;;18.60;57.90;;;;;;5096821;28;20498;-61
2021/04/04 04:45:14;;;;;;;10.13;5.05;;;18.60;57.80;;;;;;5097059;28;20032;-61
2021/04/04 04:47:40;;;;;;;7.50;4.78;;;18.60;58.10;;;;;;5096792;28;20456;-60
2021/04/04 04:50:06;;;;;;;10.15;5.68;;;18.60;58.40;;;;;;5096704;28;20024;-60
2021/04/04 04:52:32;;;;;;;8.90;5.07;;;18.50;58.50;;;;;;5096565;28;20039;-60
2021/04/04 04:54:58;;;;;;;9.27;5.20;;;18.50;58.70;;;;;;5096898;28;20028;-60
2021/04/04 04:57:25;;;;;;;8.98;4.80;;;18.50;58.70;;;;;;5096620;28;20082;-60
2021/04/04 04:59:50;;;;;;;7.95;5.05;;;18.40;58.60;;;;;;5096512;28;20538;-60
2021/04/04 05:02:21;;;;;;;7.43;4.57;;;18.50;59.00;;;;;;5096660;28;20032;-58
2021/04/04 05:04:47;;;;;;;7.60;4.45;;;18.40;59.20;;;;;;5096458;28;20036;-57
2021/04/04 05:07:16;;;;;;;8.65;4.45;;;18.40;59.40;;;;;;5096417;28;20093;-58
2021/04/04 05:09:44;;;;;;;9.05;5.15;;;18.40;59.50;;;;;;5096381;28;20043;-58
2021/04/04 05:12:14;;;;;;;7.90;4.47;;;18.30;59.40;;;;;;5096029;28;20032;-59
2021/04/04 05:14:40;;;;;;;;;;;18.30;59.50;;;;;;5097118;28;20085;-60
2021/04/04 05:17:05;;;;;;;7.95;4.38;;;18.30;59.70;;;;;;5096216;28;19908;-57
2021/04/04 05:19:31;;;;;;;8.55;4.47;;;18.30;59.60;;;;;;5095890;28;20020;-60
2021/04/04 05:21:58;;;;;;;6.97;4.03;;;18.30;60.00;;;;;;5096060;28;20031;-58
2021/04/04 05:24:25;;;;;;;8.80;4.28;;;18.30;60.30;;;;;;5095838;28;20035;-58
2021/04/04 05:26:51;;;;;;;9.60;5.00;;;18.30;60.00;;;;;;5095749;28;20028;-58
2021/04/04 05:29:19;;;;;;;8.13;4.28;;;18.30;60.00;;;;;;5095798;28;20090;-57
2021/04/04 05:31:55;;;;;;;7.05;4.20;;;18.30;58.80;;;;;;5095896;28;20028;-58
2021/04/04 05:34:26;;;;;;;8.70;4.60;;;18.40;58.50;;;;;;5095726;28;20032;-60
2021/04/04 05:36:58;;;;;;;7.97;4.80;;;18.40;58.30;;;;;;5096324;28;20066;-60
2021/04/04 05:39:27;;;;;;;6.63;4.38;;;18.50;58.30;;;;;;5095618;28;20066;-60
2021/04/04 05:41:55;;;;;;;9.60;5.60;;;18.50;58.10;;;;;;5095916;28;20020;-60
2021/04/04 05:44:34;;;;;;;7.85;4.75;;;18.60;58.10;;;;;;5095689;28;20039;-58
2021/04/04 05:47:07;;;;;;;7.47;4.63;;;18.50;58.40;;;;;;5095551;28;20113;-58
2021/04/04 05:50:06;;;;;;;7.32;4.28;;;18.40;58.70;;;;;;5095968;28;20020;-58
2021/04/04 05:52:31;;;;;;;8.07;4.00;;;18.50;59.00;;;;;;5095316;28;20384;-60
2021/04/04 05:55:22;;;;;;;8.52;4.43;;;18.50;59.00;;;;;;5095754;28;20054;-61
2021/04/04 05:57:54;;;;;;;;;;;18.40;59.00;;;;;;5096066;28;20035;-61
2021/04/04 06:00:21;;;;;;;6.35;3.72;;;18.40;59.30;;;;;;5095487;28;20018;-61
2021/04/04 06:03:07;;;;;;;7.72;4.50;;;18.30;59.60;;;;;;5095351;28;20480;-61
2021/04/04 06:06:03;;;;;;;7.60;4.05;;;18.30;59.60;;;;;;5095229;28;20414;-58
2021/04/04 06:09:06;;;;;;;6.93;3.97;;;18.30;59.80;;;;;;5095542;28;20119;-61
2021/04/04 06:11:55;;;;;;;7.90;3.58;;;18.30;59.90;;;;;;5094953;28;20036;-60
2021/04/04 06:14:58;;;;;;;5.30;3.58;;;18.30;59.90;;;;;;5095702;28;20118;-58
2021/04/04 06:17:27;;;;;;;6.10;3.67;;;18.30;59.90;;;;;;5095161;28;20400;-60
2021/04/04 06:20:08;;;;;;;7.55;4.25;;;18.30;60.00;;;;;;5095017;28;20039;-60
2021/04/04 06:23:10;;;;;;;5.78;3.70;;;18.30;59.80;;;;;;5095597;28;20028;-60
2021/04/04 06:25:48;;;;;;;6.32;4.18;;;18.30;60.20;;;;;;5094977;28;20047;-58
2021/04/04 06:28:35;;;;;;;8.32;3.67;;;18.20;60.20;;;;;;5094830;28;20052;-61
2021/04/04 06:31:12;;;;;;;6.53;3.30;;;18.20;58.90;;;;;;5094897;28;20031;-60
2021/04/04 06:33:42;;;;;;;4.70;3.40;;;18.30;58.60;;;;;;5094701;28;20086;-58
2021/04/04 06:36:45;;;;;;;7.03;3.23;;;18.40;58.30;;;;;;5094582;28;20071;-59
2021/04/04 06:39:25;;;;;;;6.75;3.78;;;18.50;58.20;;;;;;5094461;28;20066;-61
2021/04/04 06:41:51;;;;;;;7.38;4.13;;;18.50;58.00;;;;;;5094648;28;20050;-60
2021/04/04 06:44:44;;;;;;;5.68;3.50;;;18.50;58.10;;;;;;5093860;28;20036;-61
2021/04/04 06:47:22;;;;;;;6.15;3.72;;;18.50;58.40;;;;;;5094340;28;20427;-58
2021/04/04 06:50:23;;;;;;;6.30;3.42;;;18.40;58.50;;;;;;5094271;28;20114;-57
2021/04/04 06:53:12;;;;;;;8.00;3.92;;;18.40;58.60;;;;;;5094409;28;20478;-57
2021/04/04 06:56:08;;;;;;;7.43;3.63;;;18.40;59.20;;;;;;5094481;28;20035;-60
2021/04/04 06:58:37;;;;;;;5.38;3.38;;;18.30;59.60;;;;;;5094304;28;20107;-61
2021/04/04 07:01:24;;;;;;;6.43;3.47;;;18.30;59.50;;;;;;5094171;28;20060;-61
2021/04/04 07:04:01;;;;;;;6.00;2.88;;;18.30;59.80;;;;;;5094141;28;20115;-60
2021/04/04 07:06:26;;;;;;;5.93;3.38;;;18.30;59.90;;;;;;5094464;28;20103;-61
2021/04/04 07:09:25;;;;;;;5.32;3.08;;;18.30;59.60;;;;;;5094213;28;20099;-59
2021/04/04 07:11:54;;;;;;;6.22;3.10;;;18.20;59.80;;;;;;5093981;28;20106;-60
2021/04/04 07:14:26;;;;;;;6.78;3.60;;;18.20;59.70;;;;;;5094041;28;20533;-61
2021/04/04 07:17:10;;;;;;;5.70;3.00;;;18.20;60.10;;;;;;5094129;28;20040;-61
2021/04/04 07:20:01;;;;;;;6.70;3.78;;;18.30;60.00;;;;;;5093974;28;20043;-61
2021/04/04 07:22:33;;;;;;;13.30;3.85;;;18.30;59.90;;;;;;5093693;28;20032;-59
2021/04/04 07:25:29;;;;;;;5.07;3.00;;;18.40;58.10;;;;;;5093835;28;20021;-63
2021/04/04 07:28:36;;;;;;;5.18;3.08;;;18.50;58.60;;;;;;5093417;28;20051;-62
2021/04/04 07:31:10;;;;;;;15.27;3.80;;;18.50;56.50;;;;;;5093718;28;20051;-62
2021/04/04 07:33:49;;;;;;;7.25;2.95;;;18.60;56.70;;;;;;5094252;28;20032;-60
2021/04/04 07:36:19;;;;;;;7.60;3.53;;;18.70;55.90;;;;;;5092607;28;20032;-61
2021/04/04 07:39:05;;;;;;;11.55;3.40;;;18.80;56.10;;;;;;5093615;28;20024;-62
2021/04/04 07:41:56;;;;;;;32.22;13.45;;;18.80;55.90;;;;;;5094166;28;20067;-59
2021/04/04 07:44:35;;;;;;;40.40;22.13;;;18.90;55.70;;;;;;5093805;28;20128;-61
2021/04/04 07:47:27;;;;;;;42.45;28.23;;;18.80;55.60;;;;;;5093548;28;20028;-62
2021/04/04 07:49:59;;;;;;;47.65;30.02;;;18.80;55.80;;;;;;5093414;28;20024;-62
2021/04/04 07:52:35;;;;;;;58.30;38.33;;;18.80;55.40;;;;;;5093668;28;20035;-61
2021/04/04 07:55:12;;;;;;;57.75;36.10;;;18.70;55.50;;;;;;5093709;28;20064;-62
2021/04/04 07:57:53;;;;;;;66.60;40.78;;;18.70;55.60;;;;;;5095454;28;20020;-58
2021/04/04 08:00:20;;;;;;;61.60;39.97;;;18.60;55.30;;;;;;5086010;28;20082;-61
2021/04/04 08:03:16;;;;;;;64.25;33.63;;;18.60;53.40;;;;;;5077345;28;20043;-63
2021/04/04 08:05:45;;;;;;;54.83;30.33;;;18.60;52.10;;;;;;5072387;28;20047;-62
2021/04/04 08:08:17;;;;;;;44.75;25.80;;;18.50;52.50;;;;;;5077562;28;20059;-62
2021/04/04 08:10:55;;;;;;;44.25;26.95;;;18.40;52.00;;;;;;5077749;28;20021;-62
2021/04/04 08:13:35;;;;;;;35.05;21.50;;;18.40;52.40;;;;;;5077297;28;20384;-62
2021/04/04 08:16:19;;;;;;;25.40;17.80;;;18.40;52.90;;;;;;5077110;28;20032;-62
2021/04/04 08:18:45;;;;;;;27.63;14.25;;;18.40;51.70;;;;;;5077039;28;20489;-62
2021/04/04 08:21:25;;;;;;;25.90;16.05;;;18.40;52.40;;;;;;5075824;28;20024;-66
2021/04/04 08:23:57;;;;;;;29.52;15.40;;;18.40;53.20;;;;;;5077001;28;20432;-64
2021/04/04 08:26:30;;;;;;;38.45;15.95;;;18.40;53.40;;;;;;5076933;28;20029;-63
2021/04/04 08:29:09;;;;;;;34.95;16.48;;;18.40;51.60;;;;;;5076415;28;20064;-63
2021/04/04 08:31:42;;;;;;;25.15;14.68;;;18.50;51.20;;;;;;5075070;28;20377;-63
2021/04/04 08:34:22;;;;;;;30.23;13.55;;;18.50;51.70;;;;;;5075106;28;20033;-64
2021/04/04 08:36:56;;;;;;;31.83;13.88;;;18.60;51.60;;;;;;5074917;28;20032;-63
2021/04/04 08:39:25;;;;;;;27.60;12.00;;;18.60;51.80;;;;;;5076051;28;20029;-61
2021/04/04 08:41:50;;;;;;;24.67;12.27;;;18.70;51.60;;;;;;5076358;28;20488;-60
2021/04/04 08:44:39;;;;;;;21.60;12.10;;;18.60;52.80;;;;;;5075476;28;20036;-61
2021/04/04 08:47:26;;;;;;;21.60;11.15;;;18.60;52.90;;;;;;5071981;28;20043;-61
2021/04/04 08:49:53;;;;;;;23.13;11.80;;;18.50;53.60;;;;;;5076159;28;20036;-63
2021/04/04 08:52:26;;;;;;;22.10;10.73;;;18.50;54.10;;;;;;5076282;28;20484;-63
2021/04/04 08:54:54;;;;;;;27.05;13.23;;;18.50;53.70;;;;;;5076237;28;20522;-63
2021/04/04 08:57:51;;;;;;;22.13;9.77;;;18.50;54.00;;;;;;5076229;28;20464;-63
2021/04/04 09:00:19;;;;;;;21.98;10.73;;;18.40;54.20;;;;;;5075651;28;20072;-60
2021/04/04 09:02:51;;;;;;;17.73;10.20;;;18.40;55.10;;;;;;5076478;28;20032;-62
2021/04/04 09:05:21;;;;;;;14.85;8.65;;;18.50;55.10;;;;;;5076706;28;20365;-61
2021/04/04 09:07:47;;;;;;;11.85;7.45;;;18.50;54.70;;;;;;5075453;28;20116;-57
2021/04/04 09:10:16;;;;;;;13.48;6.78;;;18.40;54.30;;;;;;5076097;28;20025;-58
2021/04/04 09:12:44;;;;;;;12.93;6.07;;;18.40;51.80;;;;;;5075896;28;20376;-59
2021/04/04 09:15:11;;;;;;;11.75;5.55;;;18.40;51.70;;;;;;5076063;28;20043;-59
2021/04/04 09:17:37;;;;;;;10.07;5.28;;;18.50;54.50;;;;;;5076131;28;20036;-58
2021/04/04 09:20:08;;;;;;;8.50;4.55;;;18.40;54.10;;;;;;5075945;28;20021;-56
2021/04/04 09:22:36;;;;;;;11.32;5.65;;;18.40;53.50;;;;;;5075574;28;20519;-58
2021/04/04 09:25:07;;;;;;;9.35;6.40;;;18.40;53.40;;;;;;5075771;28;20060;-57
2021/04/04 09:27:40;;;;;;;10.32;5.07;;;18.40;52.30;;;;;;5076376;28;20086;-55
2021/04/04 09:30:22;;;;;;;11.25;6.40;;;18.50;52.80;;;;;;5075924;28;20035;-56
2021/04/04 09:32:59;;;;;;;12.43;5.75;;;18.50;51.90;;;;;;5075886;28;20036;-58
2021/04/04 09:35:25;;;;;;;10.20;5.47;;;18.60;52.20;;;;;;5075413;28;20040;-58
2021/04/04 09:37:57;;;;;;;10.05;5.20;;;18.60;52.00;;;;;;5075336;28;20024;-59
2021/04/04 09:40:23;;;;;;;7.70;4.78;;;18.60;52.30;;;;;;5076084;28;20025;-59
2021/04/04 09:42:49;;;;;;;9.90;5.00;;;18.60;52.80;;;;;;5075485;28;20071;-58
2021/04/04 09:45:23;;;;;;;12.02;5.60;;;18.50;53.00;;;;;;5075367;28;20036;-58
2021/04/04 09:47:51;;;;;;;13.73;5.03;;;18.50;53.50;;;;;;5075212;28;20025;-58
2021/04/04 09:50:19;;;;;;;10.15;4.82;;;18.50;53.30;;;;;;5075330;28;20028;-59
2021/04/04 09:52:44;;;;;;;10.43;4.88;;;18.50;53.20;;;;;;5075589;28;20427;-58
2021/04/04 09:55:18;;;;;;;8.65;5.47;;;18.50;53.50;;;;;;5075438;28;20032;-58
2021/04/04 09:57:52;;;;;;;9.55;4.65;;;18.40;53.30;;;;;;5075148;28;20029;-58
2021/04/04 10:00:18;;;;;;;10.68;5.45;;;18.40;53.70;;;;;;5075175;28;20029;-58
2021/04/04 10:02:43;;;;;;;11.32;4.85;;;18.40;53.50;;;;;;5074980;28;20510;-59
2021/04/04 10:05:10;;;;;;;10.43;5.28;;;18.40;53.90;;;;;;5075013;28;20024;-59
2021/04/04 10:07:35;;;;;;;8.10;4.90;;;18.40;53.90;;;;;;5074985;28;20032;-56
2021/04/04 10:10:05;;;;;;;10.77;5.35;;;18.40;53.80;;;;;;5074876;28;20069;-59
2021/04/04 10:12:50;;;;;;;8.60;4.82;;;18.40;53.70;;;;;;5074485;28;20055;-59
2021/04/04 10:15:16;;;;;;;9.65;5.07;;;18.30;54.00;;;;;;5074643;28;20036;-56
2021/04/04 10:17:52;;;;;;;8.35;4.10;;;18.40;54.20;;;;;;5075279;28;20086;-56
2021/04/04 10:20:40;;;;;;;10.50;4.90;;;18.40;54.60;;;;;;5073729;28;20471;-56
2021/04/04 10:23:06;;;;;;;8.68;4.60;;;18.40;54.30;;;;;;5074702;28;20044;-56
2021/04/04 10:25:33;;;;;;;8.05;4.65;;;18.40;53.50;;;;;;5074592;28;20028;-58
2021/04/04 10:28:02;;;;;;;8.40;4.68;;;18.40;53.20;;;;;;5074538;28;20044;-59
2021/04/04 10:30:29;;;;;;;9.23;4.90;;;18.40;52.70;;;;;;5074524;28;20043;-58
2021/04/04 10:32:56;;;;;;;7.43;4.22;;;18.50;52.50;;;;;;5074533;28;20036;-58
2021/04/04 10:35:34;;;;;;;9.48;4.30;;;18.50;52.60;;;;;;5074514;28;20109;-59
2021/04/04 10:38:08;;;;;;;6.22;3.70;;;18.60;52.40;;;;;;5074193;28;20129;-59
2021/04/04 10:40:53;;;;;;;7.15;4.03;;;18.60;52.70;;;;;;5074367;28;20468;-59
2021/04/04 10:43:33;;;;;;;8.13;4.50;;;18.50;53.20;;;;;;5074607;28;20146;-59
2021/04/04 10:46:00;;;;;;;10.48;4.20;;;18.40;53.90;;;;;;5073982;28;20523;-59
2021/04/04 10:48:28;;;;;;;8.95;4.15;;;18.50;54.40;;;;;;5074117;28;20162;-58
2021/04/04 10:50:54;;;;;;;8.55;4.28;;;18.40;54.40;;;;;;5074227;28;20130;-59
2021/04/04 10:53:20;;;;;;;10.77;4.32;;;18.40;54.70;;;;;;5073883;28;20107;-59
2021/04/04 10:55:47;;;;;;;8.77;4.38;;;18.40;54.30;;;;;;5074243;28;20418;-58
2021/04/04 10:58:27;;;;;;;8.63;4.15;;;18.40;54.60;;;;;;5073864;28;20039;-59
2021/04/04 11:00:56;;;;;;;10.53;4.23;;;18.40;54.80;;;;;;5073852;28;20031;-59
2021/04/04 11:03:22;;;;;;;10.00;4.43;;;18.40;55.10;;;;;;5074025;28;20032;-59
2021/04/04 11:05:48;;;;;;;7.35;3.70;;;18.30;54.90;;;;;;5073980;28;20476;-59
2021/04/04 11:08:15;;;;;;;8.25;4.43;;;18.30;54.90;;;;;;5074231;28;20460;-59
2021/04/04 11:10:40;;;;;;;9.98;3.90;;;18.30;55.00;;;;;;5073719;28;20051;-59
2021/04/04 11:13:06;;;;;;;8.70;4.00;;;18.30;55.30;;;;;;5073825;28;20478;-59
2021/04/04 11:15:38;;;;;;;8.57;4.25;;;18.30;54.40;;;;;;5073821;28;20033;-59
2021/04/04 11:18:50;;;;;;;7.50;4.18;;;18.30;54.50;;;;;;5073914;28;20029;-59
2021/04/04 11:21:22;;;;;;;7.35;4.03;;;18.30;55.40;;;;;;5071679;28;20039;-58
2021/04/04 11:23:48;;;;;;;6.53;3.47;;;18.30;55.00;;;;;;5073511;28;20400;-59
2021/04/04 11:26:32;;;;;;;6.90;3.55;;;18.30;53.30;;;;;;5074184;28;20025;-59
2021/04/04 11:29:13;;;;;;;5.13;2.90;;;18.40;53.30;;;;;;5074200;28;20106;-59
2021/04/04 11:31:41;;;;;;;7.88;3.60;;;18.50;53.00;;;;;;5073541;28;20111;-59
2021/04/04 11:34:35;;;;;;;6.50;3.20;;;18.50;53.00;;;;;;5073535;28;20086;-59
2021/04/04 11:37:05;;;;;;;6.03;3.72;;;18.50;52.80;;;;;;5073442;28;20025;-59
2021/04/04 11:39:32;;;;;;;7.65;3.70;;;18.60;53.10;;;;;;5073339;28;20388;-57
2021/04/04 11:42:01;;;;;;;7.32;3.60;;;18.50;53.60;;;;;;5073553;28;20534;-56
2021/04/04 11:44:38;;;;;;;5.88;3.65;;;18.40;54.10;;;;;;5073501;28;20025;-58
2021/04/04 11:47:06;;;;;;;5.03;3.30;;;18.40;54.30;;;;;;5073891;28;20105;-58
2021/04/04 11:49:58;;;;;;;7.57;3.45;;;18.40;54.60;;;;;;5073565;28;20029;-59
2021/04/04 11:52:23;;;;;;;6.45;3.10;;;18.40;54.80;;;;;;5073070;28;20041;-59
2021/04/04 11:54:50;;;;;;;6.57;3.88;;;18.40;54.80;;;;;;5073362;28;20040;-60
2021/04/04 11:57:41;;;;;;;6.35;3.28;;;18.40;55.30;;;;;;5073417;28;20039;-58
2021/04/04 12:00:11;;;;;;;;;;;18.30;55.10;;;;;;5073698;28;20480;-59
2021/04/04 12:02:39;;;;;;;6.60;3.10;;;18.30;55.50;;;;;;5073450;28;19908;-58
2021/04/04 12:05:10;;;;;;;6.60;2.95;;;18.30;55.20;;;;;;5073406;28;20035;-58
2021/04/04 12:07:51;;;;;;;5.78;3.50;;;18.30;54.50;;;;;;5073247;28;20104;-59
2021/04/04 12:10:38;;;;;;;6.88;3.85;;;18.30;54.70;;;;;;5073460;28;20024;-58
2021/04/04 12:13:15;;;;;;;7.15;3.55;;;18.30;55.00;;;;;;5073170;28;20032;-59
2021/04/04 12:15:41;;;;;;;5.40;3.15;;;18.30;55.00;;;;;;5073077;28;20032;-59
2021/04/04 12:18:06;;;;;;;6.95;4.00;;;18.30;54.50;;;;;;5073215;28;20025;-58
2021/04/04 12:20:33;;;;;;;5.72;2.80;;;18.30;54.90;;;;;;5073220;28;20036;-59
2021/04/04 12:23:08;;;;;;;5.50;3.05;;;18.30;54.10;;;;;;5072905;28;20033;-59
2021/04/04 12:25:34;;;;;;;5.80;2.92;;;18.30;53.80;;;;;;5073485;28;20032;-59
2021/04/04 12:28:01;;;;;;;6.22;3.42;;;18.30;53.90;;;;;;5071704;28;20055;-59
2021/04/04 12:30:36;;;;;;;4.95;2.70;;;18.40;53.40;;;;;;5072794;28;20524;-59
2021/04/04 12:33:07;;;;;;;6.75;2.90;;;18.50;53.30;;;;;;5073437;28;20414;-59
2021/04/04 12:35:44;;;;;;;6.82;3.30;;;18.50;53.20;;;;;;5073083;28;20051;-56
2021/04/04 12:38:23;;;;;;;5.35;2.70;;;18.50;53.30;;;;;;5073287;28;20029;-57
2021/04/04 12:40:49;;;;;;;5.82;2.90;;;18.50;53.50;;;;;;5072944;28;20048;-58
2021/04/04 12:43:15;;;;;;;4.88;2.88;;;18.50;53.80;;;;;;5074771;28;20036;-58
2021/04/04 12:45:41;;;;;;;6.05;2.85;;;18.40;54.60;;;;;;5076731;28;20020;-58
2021/04/04 12:48:25;;;;;;;6.35;2.88;;;18.40;55.00;;;;;;5076533;28;20020;-59
2021/04/04 12:50:56;;;;;;;5.50;3.15;;;18.30;55.00;;;;;;5076719;28;20028;-59
2021/04/04 12:53:27;;;;;;;6.68;2.83;;;18.40;55.20;;;;;;5076380;28;20123;-58
2021/04/04 12:55:53;;;;;;;5.47;3.00;;;18.30;55.10;;;;;;5076135;28;20032;-59
2021/04/04 12:58:19;;;;;;;5.85;3.17;;;18.30;55.40;;;;;;5076364;28;20107;-58
2021/04/04 13:00:47;;;;;;;6.13;3.20;;;18.30;55.30;;;;;;5076348;28;20054;-59
2021/04/04 13:03:17;;;;;;;4.50;3.13;;;18.30;55.00;;;;;;5076005;28;20036;-58
2021/04/04 13:05:48;;;;;;;6.35;2.70;;;18.30;55.00;;;;;;5075928;28;20388;-58